sensor_id;sensor_type;location;lat;lon;timestamp;P1;durP1;ratioP1;P2;durP2;ratioP2
80392;SDS011;69719;45.544;10.218;2023-06-22T00:02:13;26.02;;;7.95;;
80392;SDS011;69719;45.544;10.218;2023-06-22T00:04:39;25.55;;;11.20;;
80392;SDS011;69719;45.544;10.218;2023-06-22T00:07:05;29.08;;;10.25;;
80392;SDS011;69719;45.544;10.218;2023-06-22T00:09:31;24.45;;;8.43;;
80392;SDS011;69719;45.544;10.218;2023-06-22T00:11:56;16.80;;;7.50;;
80392;SDS011;69719;45.544;10.218;2023-06-22T00:14:22;23.05;;;7.80;;
80392;SDS011;69719;45.544;10.218;2023-06-22T00:16:47;28.63;;;8.18;;
80392;SDS011;69719;45.544;10.218;2023-06-22T00:19:14;20.52;;;8.25;;
80392;SDS011;69719;45.544;10.218;2023-06-22T00:21:40;18.67;;;7.15;;
80392;SDS011;69719;45.544;10.218;2023-06-22T00:24:07;25.08;;;7.45;;
80392;SDS011;69719;45.544;10.218;2023-06-22T00:26:32;24.08;;;8.00;;
80392;SDS011;69719;45.544;10.218;2023-06-22T00:28:58;17.45;;;7.60;;
80392;SDS011;69719;45.544;10.218;2023-06-22T00:31:23;19.58;;;8.52;;
80392;SDS011;69719;45.544;10.218;2023-06-22T00:33:49;18.40;;;7.13;;
80392;SDS011;69719;45.544;10.218;2023-06-22T00:36:15;18.50;;;7.68;;
80392;SDS011;69719;45.544;10.218;2023-06-22T00:38:44;23.88;;;8.43;;
80392;SDS011;69719;45.544;10.218;2023-06-22T00:41:09;18.27;;;7.47;;
80392;SDS011;69719;45.544;10.218;2023-06-22T00:43:35;20.25;;;7.18;;
80392;SDS011;69719;45.544;10.218;2023-06-22T00:46:00;19.00;;;8.30;;
80392;SDS011;69719;45.544;10.218;2023-06-22T00:48:26;22.02;;;7.97;;
80392;SDS011;69719;45.544;10.218;2023-06-22T00:50:52;22.33;;;7.25;;
80392;SDS011;69719;45.544;10.218;2023-06-22T00:53:20;20.17;;;7.85;;
80392;SDS011;69719;45.544;10.218;2023-06-22T00:55:46;22.20;;;8.38;;
80392;SDS011;69719;45.544;10.218;2023-06-22T00:58:16;17.13;;;7.15;;
80392;SDS011;69719;45.544;10.218;2023-06-22T01:00:46;15.93;;;7.70;;
80392;SDS011;69719;45.544;10.218;2023-06-22T01:03:12;24.33;;;7.43;;
80392;SDS011;69719;45.544;10.218;2023-06-22T01:05:38;33.28;;;9.68;;
80392;SDS011;69719;45.544;10.218;2023-06-22T01:16:35;18.17;;;7.90;;
80392;SDS011;69719;45.544;10.218;2023-06-22T01:19:09;18.17;;;7.57;;
80392;SDS011;69719;45.544;10.218;2023-06-22T01:21:53;22.60;;;8.10;;
80392;SDS011;69719;45.544;10.218;2023-06-22T01:29:39;17.50;;;6.90;;
80392;SDS011;69719;45.544;10.218;2023-06-22T01:32:05;21.38;;;7.53;;
80392;SDS011;69719;45.544;10.218;2023-06-22T01:34:32;21.70;;;7.43;;
80392;SDS011;69719;45.544;10.218;2023-06-22T01:36:59;18.90;;;7.90;;
80392;SDS011;69719;45.544;10.218;2023-06-22T01:39:27;22.00;;;7.40;;
80392;SDS011;69719;45.544;10.218;2023-06-22T01:41:52;14.70;;;7.30;;
80392;SDS011;69719;45.544;10.218;2023-06-22T01:44:19;19.67;;;7.60;;
80392;SDS011;69719;45.544;10.218;2023-06-22T01:46:46;25.25;;;7.82;;
80392;SDS011;69719;45.544;10.218;2023-06-22T01:49:14;20.13;;;7.72;;
80392;SDS011;69719;45.544;10.218;2023-06-22T01:51:40;20.05;;;7.38;;
80392;SDS011;69719;45.544;10.218;2023-06-22T01:54:06;20.35;;;8.10;;
80392;SDS011;69719;45.544;10.218;2023-06-22T01:56:33;17.75;;;7.95;;
80392;SDS011;69719;45.544;10.218;2023-06-22T02:01:53;21.02;;;7.70;;
80392;SDS011;69719;45.544;10.218;2023-06-22T02:04:25;21.00;;;7.50;;
80392;SDS011;69719;45.544;10.218;2023-06-22T02:06:55;22.63;;;7.68;;
80392;SDS011;69719;45.544;10.218;2023-06-22T02:09:23;24.20;;;8.32;;
80392;SDS011;69719;45.544;10.218;2023-06-22T02:11:53;18.80;;;8.07;;
80392;SDS011;69719;45.544;10.218;2023-06-22T02:14:21;21.17;;;7.70;;
80392;SDS011;69719;45.544;10.218;2023-06-22T02:16:47;20.42;;;7.38;;
80392;SDS011;69719;45.544;10.218;2023-06-22T02:19:13;20.95;;;7.68;;
80392;SDS011;69719;45.544;10.218;2023-06-22T02:21:43;15.90;;;7.15;;
80392;SDS011;69719;45.544;10.218;2023-06-22T02:24:09;17.55;;;7.55;;
80392;SDS011;69719;45.544;10.218;2023-06-22T02:26:34;17.23;;;7.80;;
80392;SDS011;69719;45.544;10.218;2023-06-22T02:29:03;16.10;;;7.68;;
80392;SDS011;69719;45.544;10.218;2023-06-22T02:31:28;19.95;;;7.78;;
80392;SDS011;69719;45.544;10.218;2023-06-22T02:33:56;21.70;;;7.95;;
80392;SDS011;69719;45.544;10.218;2023-06-22T02:36:23;21.73;;;7.93;;
80392;SDS011;69719;45.544;10.218;2023-06-22T02:38:50;20.60;;;7.93;;
80392;SDS011;69719;45.544;10.218;2023-06-22T02:41:15;21.25;;;7.40;;
80392;SDS011;69719;45.544;10.218;2023-06-22T02:43:43;19.02;;;7.25;;
80392;SDS011;69719;45.544;10.218;2023-06-22T02:46:12;18.60;;;7.97;;
80392;SDS011;69719;45.544;10.218;2023-06-22T02:48:41;18.45;;;7.95;;
80392;SDS011;69719;45.544;10.218;2023-06-22T02:51:07;16.38;;;7.45;;
80392;SDS011;69719;45.544;10.218;2023-06-22T02:53:33;17.90;;;7.40;;
80392;SDS011;69719;45.544;10.218;2023-06-22T02:55:58;17.77;;;8.20;;
80392;SDS011;69719;45.544;10.218;2023-06-22T02:58:26;22.15;;;8.10;;
80392;SDS011;69719;45.544;10.218;2023-06-22T03:00:52;17.13;;;7.78;;
80392;SDS011;69719;45.544;10.218;2023-06-22T03:03:21;18.67;;;8.02;;
80392;SDS011;69719;45.544;10.218;2023-06-22T03:05:46;22.13;;;8.00;;
80392;SDS011;69719;45.544;10.218;2023-06-22T03:08:11;19.00;;;7.97;;
80392;SDS011;69719;45.544;10.218;2023-06-22T03:10:37;22.13;;;8.20;;
80392;SDS011;69719;45.544;10.218;2023-06-22T03:13:02;24.55;;;7.68;;
80392;SDS011;69719;45.544;10.218;2023-06-22T03:15:28;19.55;;;8.10;;
80392;SDS011;69719;45.544;10.218;2023-06-22T03:17:57;16.30;;;7.72;;
80392;SDS011;69719;45.544;10.218;2023-06-22T03:20:23;25.88;;;8.35;;
80392;SDS011;69719;45.544;10.218;2023-06-22T03:22:48;21.95;;;8.18;;
80392;SDS011;69719;45.544;10.218;2023-06-22T03:25:14;22.63;;;7.88;;
80392;SDS011;69719;45.544;10.218;2023-06-22T03:27:40;18.98;;;8.05;;
80392;SDS011;69719;45.544;10.218;2023-06-22T03:30:07;20.42;;;8.02;;
80392;SDS011;69719;45.544;10.218;2023-06-22T03:32:33;22.83;;;8.30;;
80392;SDS011;69719;45.544;10.218;2023-06-22T03:34:59;14.45;;;7.95;;
80392;SDS011;69719;45.544;10.218;2023-06-22T03:37:25;17.95;;;6.90;;
80392;SDS011;69719;45.544;10.218;2023-06-22T03:39:51;17.38;;;7.55;;
80392;SDS011;69719;45.544;10.218;2023-06-22T03:42:17;22.73;;;8.05;;
80392;SDS011;69719;45.544;10.218;2023-06-22T03:44:43;23.45;;;7.78;;
80392;SDS011;69719;45.544;10.218;2023-06-22T03:47:08;15.35;;;7.43;;
80392;SDS011;69719;45.544;10.218;2023-06-22T03:49:34;19.30;;;8.32;;
80392;SDS011;69719;45.544;10.218;2023-06-22T03:52:01;21.25;;;9.00;;
80392;SDS011;69719;45.544;10.218;2023-06-22T03:54:31;25.10;;;7.97;;
80392;SDS011;69719;45.544;10.218;2023-06-22T03:56:57;20.55;;;8.07;;
80392;SDS011;69719;45.544;10.218;2023-06-22T03:59:23;29.63;;;9.95;;
80392;SDS011;69719;45.544;10.218;2023-06-22T04:01:49;18.98;;;7.38;;
80392;SDS011;69719;45.544;10.218;2023-06-22T04:04:15;15.65;;;7.38;;
80392;SDS011;69719;45.544;10.218;2023-06-22T04:06:41;20.73;;;8.13;;
80392;SDS011;69719;45.544;10.218;2023-06-22T04:09:07;16.27;;;7.47;;
80392;SDS011;69719;45.544;10.218;2023-06-22T04:11:32;19.85;;;7.85;;
80392;SDS011;69719;45.544;10.218;2023-06-22T04:13:58;16.10;;;7.28;;
80392;SDS011;69719;45.544;10.218;2023-06-22T04:16:23;17.92;;;7.30;;
80392;SDS011;69719;45.544;10.218;2023-06-22T04:18:48;22.88;;;7.57;;
80392;SDS011;69719;45.544;10.218;2023-06-22T04:21:14;21.30;;;8.25;;
80392;SDS011;69719;45.544;10.218;2023-06-22T04:23:39;17.95;;;7.75;;
80392;SDS011;69719;45.544;10.218;2023-06-22T04:26:05;24.15;;;7.63;;
80392;SDS011;69719;45.544;10.218;2023-06-22T04:28:30;16.98;;;7.68;;
80392;SDS011;69719;45.544;10.218;2023-06-22T04:31:00;16.80;;;7.40;;
80392;SDS011;69719;45.544;10.218;2023-06-22T04:33:28;18.25;;;7.75;;
80392;SDS011;69719;45.544;10.218;2023-06-22T04:35:54;19.52;;;7.88;;
80392;SDS011;69719;45.544;10.218;2023-06-22T04:38:22;19.63;;;7.28;;
80392;SDS011;69719;45.544;10.218;2023-06-22T04:40:48;15.98;;;8.13;;
80392;SDS011;69719;45.544;10.218;2023-06-22T04:43:14;19.48;;;7.65;;
80392;SDS011;69719;45.544;10.218;2023-06-22T04:45:39;22.20;;;8.38;;
80392;SDS011;69719;45.544;10.218;2023-06-22T04:48:05;22.23;;;7.22;;
80392;SDS011;69719;45.544;10.218;2023-06-22T04:50:31;19.65;;;7.20;;
80392;SDS011;69719;45.544;10.218;2023-06-22T04:52:56;20.73;;;7.30;;
80392;SDS011;69719;45.544;10.218;2023-06-22T04:55:22;25.35;;;8.93;;
80392;SDS011;69719;45.544;10.218;2023-06-22T04:57:50;22.52;;;7.65;;
80392;SDS011;69719;45.544;10.218;2023-06-22T05:00:16;23.52;;;8.43;;
80392;SDS011;69719;45.544;10.218;2023-06-22T05:02:44;21.30;;;9.02;;
80392;SDS011;69719;45.544;10.218;2023-06-22T05:05:11;20.50;;;8.73;;
80392;SDS011;69719;45.544;10.218;2023-06-22T05:07:43;24.73;;;8.27;;
80392;SDS011;69719;45.544;10.218;2023-06-22T05:10:10;19.38;;;7.18;;
80392;SDS011;69719;45.544;10.218;2023-06-22T05:12:38;22.10;;;7.63;;
80392;SDS011;69719;45.544;10.218;2023-06-22T05:15:05;27.73;;;8.50;;
80392;SDS011;69719;45.544;10.218;2023-06-22T05:17:32;22.23;;;8.48;;
80392;SDS011;69719;45.544;10.218;2023-06-22T05:19:57;19.98;;;7.55;;
80392;SDS011;69719;45.544;10.218;2023-06-22T05:22:23;26.85;;;8.35;;
80392;SDS011;69719;45.544;10.218;2023-06-22T05:24:48;15.65;;;7.70;;
80392;SDS011;69719;45.544;10.218;2023-06-22T05:27:14;19.23;;;7.65;;
80392;SDS011;69719;45.544;10.218;2023-06-22T05:29:40;14.60;;;7.10;;
80392;SDS011;69719;45.544;10.218;2023-06-22T05:32:05;24.27;;;8.20;;
80392;SDS011;69719;45.544;10.218;2023-06-22T05:34:31;21.63;;;7.60;;
80392;SDS011;69719;45.544;10.218;2023-06-22T05:36:57;21.00;;;7.65;;
80392;SDS011;69719;45.544;10.218;2023-06-22T05:39:23;22.58;;;8.48;;
80392;SDS011;69719;45.544;10.218;2023-06-22T05:41:49;24.67;;;8.00;;
80392;SDS011;69719;45.544;10.218;2023-06-22T05:44:15;24.98;;;10.52;;
80392;SDS011;69719;45.544;10.218;2023-06-22T05:46:41;22.60;;;8.23;;
80392;SDS011;69719;45.544;10.218;2023-06-22T05:49:15;40.55;;;12.23;;
80392;SDS011;69719;45.544;10.218;2023-06-22T05:51:41;25.27;;;8.93;;
80392;SDS011;69719;45.544;10.218;2023-06-22T05:54:07;18.83;;;7.65;;
80392;SDS011;69719;45.544;10.218;2023-06-22T05:56:33;24.55;;;8.10;;
80392;SDS011;69719;45.544;10.218;2023-06-22T05:58:59;20.75;;;7.55;;
80392;SDS011;69719;45.544;10.218;2023-06-22T06:01:24;21.02;;;7.35;;
80392;SDS011;69719;45.544;10.218;2023-06-22T06:03:51;21.13;;;8.00;;
80392;SDS011;69719;45.544;10.218;2023-06-22T06:06:17;19.27;;;7.80;;
80392;SDS011;69719;45.544;10.218;2023-06-22T06:08:45;22.45;;;7.75;;
80392;SDS011;69719;45.544;10.218;2023-06-22T06:11:10;21.48;;;7.80;;
80392;SDS011;69719;45.544;10.218;2023-06-22T06:13:36;23.83;;;8.27;;
80392;SDS011;69719;45.544;10.218;2023-06-22T06:16:01;19.52;;;7.97;;
80392;SDS011;69719;45.544;10.218;2023-06-22T06:18:27;22.35;;;8.45;;
80392;SDS011;69719;45.544;10.218;2023-06-22T06:20:52;22.52;;;7.90;;
80392;SDS011;69719;45.544;10.218;2023-06-22T06:23:18;26.95;;;8.27;;
80392;SDS011;69719;45.544;10.218;2023-06-22T06:25:43;25.50;;;8.55;;
80392;SDS011;69719;45.544;10.218;2023-06-22T06:28:09;23.13;;;7.72;;
80392;SDS011;69719;45.544;10.218;2023-06-22T06:30:34;19.98;;;8.18;;
80392;SDS011;69719;45.544;10.218;2023-06-22T06:33:02;21.35;;;7.78;;
80392;SDS011;69719;45.544;10.218;2023-06-22T06:35:28;22.65;;;8.38;;
80392;SDS011;69719;45.544;10.218;2023-06-22T06:37:53;27.67;;;9.02;;
80392;SDS011;69719;45.544;10.218;2023-06-22T06:40:18;29.35;;;8.98;;
80392;SDS011;69719;45.544;10.218;2023-06-22T06:42:45;19.50;;;8.25;;
80392;SDS011;69719;45.544;10.218;2023-06-22T06:45:16;20.02;;;7.93;;
80392;SDS011;69719;45.544;10.218;2023-06-22T06:47:43;26.85;;;8.23;;
80392;SDS011;69719;45.544;10.218;2023-06-22T06:50:09;29.98;;;8.32;;
80392;SDS011;69719;45.544;10.218;2023-06-22T06:52:34;20.50;;;8.20;;
80392;SDS011;69719;45.544;10.218;2023-06-22T06:55:00;35.05;;;9.63;;
80392;SDS011;69719;45.544;10.218;2023-06-22T06:57:26;37.92;;;10.70;;
80392;SDS011;69719;45.544;10.218;2023-06-22T06:59:54;26.65;;;9.57;;
80392;SDS011;69719;45.544;10.218;2023-06-22T07:02:21;24.17;;;7.50;;
80392;SDS011;69719;45.544;10.218;2023-06-22T07:04:47;15.43;;;7.03;;
80392;SDS011;69719;45.544;10.218;2023-06-22T07:07:13;18.70;;;6.93;;
80392;SDS011;69719;45.544;10.218;2023-06-22T07:09:38;21.20;;;7.97;;
80392;SDS011;69719;45.544;10.218;2023-06-22T07:12:04;21.48;;;8.07;;
80392;SDS011;69719;45.544;10.218;2023-06-22T07:14:30;23.50;;;7.80;;
80392;SDS011;69719;45.544;10.218;2023-06-22T07:16:57;21.98;;;7.47;;
80392;SDS011;69719;45.544;10.218;2023-06-22T07:19:26;19.38;;;7.40;;
80392;SDS011;69719;45.544;10.218;2023-06-22T07:21:53;23.67;;;7.80;;
80392;SDS011;69719;45.544;10.218;2023-06-22T07:24:21;21.35;;;8.05;;
80392;SDS011;69719;45.544;10.218;2023-06-22T07:26:48;22.83;;;8.77;;
80392;SDS011;69719;45.544;10.218;2023-06-22T07:29:15;24.02;;;8.88;;
80392;SDS011;69719;45.544;10.218;2023-06-22T07:31:48;24.23;;;8.17;;
80392;SDS011;69719;45.544;10.218;2023-06-22T07:34:16;21.95;;;8.77;;
80392;SDS011;69719;45.544;10.218;2023-06-22T07:36:42;22.08;;;8.05;;
80392;SDS011;69719;45.544;10.218;2023-06-22T07:39:08;21.80;;;9.07;;
80392;SDS011;69719;45.544;10.218;2023-06-22T07:41:34;22.95;;;8.55;;
80392;SDS011;69719;45.544;10.218;2023-06-22T07:44:02;20.60;;;8.65;;
80392;SDS011;69719;45.544;10.218;2023-06-22T07:46:28;20.17;;;8.70;;
80392;SDS011;69719;45.544;10.218;2023-06-22T07:48:55;25.00;;;8.82;;
80392;SDS011;69719;45.544;10.218;2023-06-22T07:51:22;28.02;;;9.65;;
80392;SDS011;69719;45.544;10.218;2023-06-22T07:53:48;24.75;;;9.85;;
80392;SDS011;69719;45.544;10.218;2023-06-22T07:56:14;29.13;;;9.95;;
80392;SDS011;69719;45.544;10.218;2023-06-22T07:58:44;26.60;;;10.60;;
80392;SDS011;69719;45.544;10.218;2023-06-22T08:01:11;27.35;;;12.18;;
80392;SDS011;69719;45.544;10.218;2023-06-22T08:03:36;23.40;;;9.80;;
80392;SDS011;69719;45.544;10.218;2023-06-22T08:06:02;23.05;;;9.30;;
80392;SDS011;69719;45.544;10.218;2023-06-22T08:08:28;30.48;;;10.40;;
80392;SDS011;69719;45.544;10.218;2023-06-22T08:10:54;24.55;;;10.23;;
80392;SDS011;69719;45.544;10.218;2023-06-22T08:13:19;25.98;;;9.77;;
80392;SDS011;69719;45.544;10.218;2023-06-22T08:15:45;33.70;;;12.13;;
80392;SDS011;69719;45.544;10.218;2023-06-22T08:18:10;28.23;;;10.95;;
80392;SDS011;69719;45.544;10.218;2023-06-22T08:20:36;26.98;;;10.25;;
80392;SDS011;69719;45.544;10.218;2023-06-22T08:23:01;29.85;;;10.90;;
80392;SDS011;69719;45.544;10.218;2023-06-22T08:25:31;27.70;;;10.93;;
80392;SDS011;69719;45.544;10.218;2023-06-22T08:27:57;21.70;;;9.93;;
80392;SDS011;69719;45.544;10.218;2023-06-22T08:30:23;23.25;;;10.73;;
80392;SDS011;69719;45.544;10.218;2023-06-22T08:32:48;28.80;;;10.73;;
80392;SDS011;69719;45.544;10.218;2023-06-22T08:35:14;26.80;;;10.02;;
80392;SDS011;69719;45.544;10.218;2023-06-22T08:37:40;28.88;;;10.27;;
80392;SDS011;69719;45.544;10.218;2023-06-22T08:40:06;29.02;;;10.35;;
80392;SDS011;69719;45.544;10.218;2023-06-22T08:42:34;20.60;;;8.65;;
80392;SDS011;69719;45.544;10.218;2023-06-22T08:44:59;27.05;;;9.60;;
80392;SDS011;69719;45.544;10.218;2023-06-22T08:47:27;28.00;;;9.70;;
80392;SDS011;69719;45.544;10.218;2023-06-22T08:49:53;25.95;;;10.52;;
80392;SDS011;69719;45.544;10.218;2023-06-22T08:52:18;24.73;;;10.18;;
80392;SDS011;69719;45.544;10.218;2023-06-22T08:54:48;27.90;;;9.38;;
80392;SDS011;69719;45.544;10.218;2023-06-22T08:57:14;27.50;;;9.65;;
80392;SDS011;69719;45.544;10.218;2023-06-22T08:59:39;23.90;;;9.02;;
80392;SDS011;69719;45.544;10.218;2023-06-22T09:02:05;18.02;;;7.68;;
80392;SDS011;69719;45.544;10.218;2023-06-22T09:04:31;20.15;;;8.60;;
80392;SDS011;69719;45.544;10.218;2023-06-22T09:07:00;21.17;;;8.40;;
80392;SDS011;69719;45.544;10.218;2023-06-22T09:09:26;18.83;;;9.38;;
80392;SDS011;69719;45.544;10.218;2023-06-22T09:11:51;19.10;;;7.68;;
80392;SDS011;69719;45.544;10.218;2023-06-22T09:14:17;24.55;;;8.73;;
80392;SDS011;69719;45.544;10.218;2023-06-22T09:16:42;23.63;;;8.93;;
80392;SDS011;69719;45.544;10.218;2023-06-22T09:19:08;18.38;;;8.35;;
80392;SDS011;69719;45.544;10.218;2023-06-22T09:21:33;23.05;;;8.63;;
80392;SDS011;69719;45.544;10.218;2023-06-22T09:23:59;22.38;;;8.23;;
80392;SDS011;69719;45.544;10.218;2023-06-22T09:26:24;21.48;;;8.15;;
80392;SDS011;69719;45.544;10.218;2023-06-22T09:28:50;19.58;;;8.30;;
80392;SDS011;69719;45.544;10.218;2023-06-22T09:31:16;23.50;;;10.63;;
80392;SDS011;69719;45.544;10.218;2023-06-22T09:33:42;23.63;;;10.15;;
80392;SDS011;69719;45.544;10.218;2023-06-22T09:36:07;25.17;;;12.27;;
80392;SDS011;69719;45.544;10.218;2023-06-22T09:38:36;27.05;;;12.25;;
80392;SDS011;69719;45.544;10.218;2023-06-22T09:41:02;22.73;;;10.43;;
80392;SDS011;69719;45.544;10.218;2023-06-22T09:43:28;25.17;;;9.55;;
80392;SDS011;69719;45.544;10.218;2023-06-22T09:45:53;22.77;;;9.15;;
80392;SDS011;69719;45.544;10.218;2023-06-22T09:48:19;21.35;;;10.77;;
80392;SDS011;69719;45.544;10.218;2023-06-22T09:50:44;21.30;;;8.90;;
80392;SDS011;69719;45.544;10.218;2023-06-22T09:53:10;24.58;;;10.95;;
80392;SDS011;69719;45.544;10.218;2023-06-22T09:55:35;26.98;;;11.02;;
80392;SDS011;69719;45.544;10.218;2023-06-22T09:58:01;27.02;;;12.43;;
80392;SDS011;69719;45.544;10.218;2023-06-22T10:00:26;37.00;;;13.80;;
80392;SDS011;69719;45.544;10.218;2023-06-22T10:02:52;30.50;;;11.95;;
80392;SDS011;69719;45.544;10.218;2023-06-22T10:05:17;29.40;;;11.13;;
80392;SDS011;69719;45.544;10.218;2023-06-22T10:07:43;31.85;;;11.65;;
80392;SDS011;69719;45.544;10.218;2023-06-22T10:10:09;14.32;;;7.97;;
80392;SDS011;69719;45.544;10.218;2023-06-22T10:12:46;29.08;;;10.73;;
80392;SDS011;69719;45.544;10.218;2023-06-22T10:15:13;26.05;;;10.40;;
80392;SDS011;69719;45.544;10.218;2023-06-22T10:17:39;26.58;;;8.93;;
80392;SDS011;69719;45.544;10.218;2023-06-22T10:20:07;24.27;;;11.57;;
80392;SDS011;69719;45.544;10.218;2023-06-22T10:22:40;24.97;;;11.37;;
80392;SDS011;69719;45.544;10.218;2023-06-22T10:25:07;24.67;;;9.55;;
80392;SDS011;69719;45.544;10.218;2023-06-22T10:27:33;24.38;;;10.48;;
80392;SDS011;69719;45.544;10.218;2023-06-22T10:29:59;23.35;;;10.23;;
80392;SDS011;69719;45.544;10.218;2023-06-22T10:32:25;22.08;;;8.18;;
80392;SDS011;69719;45.544;10.218;2023-06-22T10:34:50;25.92;;;11.52;;
80392;SDS011;69719;45.544;10.218;2023-06-22T10:37:17;23.60;;;9.00;;
80392;SDS011;69719;45.544;10.218;2023-06-22T10:39:42;22.40;;;9.77;;
80392;SDS011;69719;45.544;10.218;2023-06-22T10:42:08;23.73;;;9.98;;
80392;SDS011;69719;45.544;10.218;2023-06-22T10:44:33;23.13;;;9.73;;
80392;SDS011;69719;45.544;10.218;2023-06-22T10:46:59;24.00;;;10.23;;
80392;SDS011;69719;45.544;10.218;2023-06-22T10:49:24;27.13;;;9.90;;
80392;SDS011;69719;45.544;10.218;2023-06-22T10:51:50;23.42;;;10.10;;
80392;SDS011;69719;45.544;10.218;2023-06-22T10:54:15;23.30;;;10.50;;
80392;SDS011;69719;45.544;10.218;2023-06-22T10:56:43;25.88;;;10.75;;
80392;SDS011;69719;45.544;10.218;2023-06-22T10:59:08;22.33;;;9.32;;
80392;SDS011;69719;45.544;10.218;2023-06-22T11:01:34;24.70;;;10.15;;
80392;SDS011;69719;45.544;10.218;2023-06-22T11:03:59;20.65;;;9.95;;
80392;SDS011;69719;45.544;10.218;2023-06-22T11:06:25;23.42;;;9.52;;
80392;SDS011;69719;45.544;10.218;2023-06-22T11:08:54;22.75;;;9.35;;
80392;SDS011;69719;45.544;10.218;2023-06-22T11:11:19;20.13;;;9.95;;
80392;SDS011;69719;45.544;10.218;2023-06-22T11:13:45;26.35;;;10.68;;
80392;SDS011;69719;45.544;10.218;2023-06-22T11:16:10;28.55;;;10.70;;
80392;SDS011;69719;45.544;10.218;2023-06-22T11:18:36;28.88;;;10.48;;
80392;SDS011;69719;45.544;10.218;2023-06-22T11:21:02;25.98;;;10.23;;
80392;SDS011;69719;45.544;10.218;2023-06-22T11:23:27;20.77;;;10.13;;
80392;SDS011;69719;45.544;10.218;2023-06-22T11:25:56;24.17;;;10.15;;
80392;SDS011;69719;45.544;10.218;2023-06-22T11:28:22;24.00;;;10.43;;
80392;SDS011;69719;45.544;10.218;2023-06-22T11:30:50;25.55;;;10.20;;
80392;SDS011;69719;45.544;10.218;2023-06-22T11:33:16;23.20;;;9.80;;
80392;SDS011;69719;45.544;10.218;2023-06-22T11:35:42;21.00;;;9.30;;
80392;SDS011;69719;45.544;10.218;2023-06-22T11:38:09;34.60;;;16.38;;
80392;SDS011;69719;45.544;10.218;2023-06-22T11:40:34;22.60;;;10.18;;
80392;SDS011;69719;45.544;10.218;2023-06-22T11:42:59;25.98;;;12.20;;
80392;SDS011;69719;45.544;10.218;2023-06-22T11:45:25;27.70;;;11.60;;
80392;SDS011;69719;45.544;10.218;2023-06-22T11:47:51;20.27;;;10.95;;
80392;SDS011;69719;45.544;10.218;2023-06-22T11:50:17;20.60;;;10.85;;
80392;SDS011;69719;45.544;10.218;2023-06-22T11:52:42;26.70;;;10.88;;
80392;SDS011;69719;45.544;10.218;2023-06-22T11:55:08;20.60;;;11.18;;
80392;SDS011;69719;45.544;10.218;2023-06-22T11:57:35;21.95;;;10.88;;
80392;SDS011;69719;45.544;10.218;2023-06-22T12:00:02;24.73;;;10.88;;
80392;SDS011;69719;45.544;10.218;2023-06-22T12:02:43;27.23;;;10.07;;
80392;SDS011;69719;45.544;10.218;2023-06-22T12:05:10;26.88;;;12.57;;
80392;SDS011;69719;45.544;10.218;2023-06-22T12:07:36;21.75;;;11.00;;
80392;SDS011;69719;45.544;10.218;2023-06-22T12:10:02;25.02;;;9.57;;
80392;SDS011;69719;45.544;10.218;2023-06-22T12:12:28;29.27;;;11.63;;
80392;SDS011;69719;45.544;10.218;2023-06-22T12:14:54;27.50;;;11.85;;
80392;SDS011;69719;45.544;10.218;2023-06-22T12:17:19;25.08;;;11.13;;
80392;SDS011;69719;45.544;10.218;2023-06-22T12:19:45;27.00;;;9.30;;
80392;SDS011;69719;45.544;10.218;2023-06-22T12:22:10;30.58;;;10.23;;
80392;SDS011;69719;45.544;10.218;2023-06-22T12:24:36;25.70;;;10.20;;
80392;SDS011;69719;45.544;10.218;2023-06-22T12:27:01;26.33;;;9.85;;
80392;SDS011;69719;45.544;10.218;2023-06-22T12:29:28;26.38;;;9.75;;
80392;SDS011;69719;45.544;10.218;2023-06-22T12:31:54;26.65;;;9.63;;
80392;SDS011;69719;45.544;10.218;2023-06-22T12:34:19;26.27;;;11.02;;
80392;SDS011;69719;45.544;10.218;2023-06-22T12:36:45;27.23;;;10.80;;
80392;SDS011;69719;45.544;10.218;2023-06-22T12:39:13;19.17;;;8.75;;
80392;SDS011;69719;45.544;10.218;2023-06-22T12:41:38;26.17;;;10.80;;
80392;SDS011;69719;45.544;10.218;2023-06-22T12:44:04;23.50;;;10.02;;
80392;SDS011;69719;45.544;10.218;2023-06-22T12:46:29;28.52;;;10.38;;
80392;SDS011;69719;45.544;10.218;2023-06-22T12:49:01;25.90;;;9.25;;
80392;SDS011;69719;45.544;10.218;2023-06-22T12:51:27;28.08;;;9.98;;
80392;SDS011;69719;45.544;10.218;2023-06-22T12:53:52;25.80;;;10.45;;
80392;SDS011;69719;45.544;10.218;2023-06-22T12:56:18;21.38;;;9.25;;
80392;SDS011;69719;45.544;10.218;2023-06-22T12:58:43;25.58;;;9.27;;
80392;SDS011;69719;45.544;10.218;2023-06-22T13:01:09;27.27;;;9.32;;
80392;SDS011;69719;45.544;10.218;2023-06-22T13:03:34;41.83;;;11.52;;
80392;SDS011;69719;45.544;10.218;2023-06-22T13:06:00;25.15;;;10.75;;
80392;SDS011;69719;45.544;10.218;2023-06-22T13:08:26;38.28;;;10.25;;
80392;SDS011;69719;45.544;10.218;2023-06-22T13:10:51;20.05;;;8.38;;
80392;SDS011;69719;45.544;10.218;2023-06-22T13:13:16;20.40;;;8.70;;
80392;SDS011;69719;45.544;10.218;2023-06-22T13:15:42;23.58;;;9.43;;
80392;SDS011;69719;45.544;10.218;2023-06-22T13:18:08;23.88;;;9.32;;
80392;SDS011;69719;45.544;10.218;2023-06-22T13:20:33;22.17;;;9.55;;
80392;SDS011;69719;45.544;10.218;2023-06-22T13:22:59;29.73;;;8.85;;
80392;SDS011;69719;45.544;10.218;2023-06-22T13:25:24;20.20;;;8.55;;
80392;SDS011;69719;45.544;10.218;2023-06-22T13:27:51;22.98;;;7.55;;
80392;SDS011;69719;45.544;10.218;2023-06-22T13:30:17;24.98;;;8.60;;
80392;SDS011;69719;45.544;10.218;2023-06-22T13:32:42;24.30;;;9.07;;
80392;SDS011;69719;45.544;10.218;2023-06-22T13:35:08;22.83;;;9.20;;
80392;SDS011;69719;45.544;10.218;2023-06-22T13:37:35;33.05;;;10.00;;
80392;SDS011;69719;45.544;10.218;2023-06-22T13:40:00;23.45;;;9.63;;
80392;SDS011;69719;45.544;10.218;2023-06-22T13:42:28;21.77;;;8.90;;
80392;SDS011;69719;45.544;10.218;2023-06-22T13:44:54;20.77;;;9.02;;
80392;SDS011;69719;45.544;10.218;2023-06-22T13:47:19;22.13;;;8.43;;
80392;SDS011;69719;45.544;10.218;2023-06-22T13:49:44;15.70;;;8.43;;
80392;SDS011;69719;45.544;10.218;2023-06-22T13:52:10;21.10;;;8.70;;
80392;SDS011;69719;45.544;10.218;2023-06-22T13:54:37;21.08;;;8.63;;
80392;SDS011;69719;45.544;10.218;2023-06-22T13:57:03;26.83;;;8.52;;
80392;SDS011;69719;45.544;10.218;2023-06-22T13:59:29;23.20;;;8.27;;
80392;SDS011;69719;45.544;10.218;2023-06-22T14:01:55;25.67;;;8.43;;
80392;SDS011;69719;45.544;10.218;2023-06-22T14:04:24;25.60;;;7.97;;
80392;SDS011;69719;45.544;10.218;2023-06-22T14:06:49;22.77;;;8.38;;
80392;SDS011;69719;45.544;10.218;2023-06-22T14:09:15;23.15;;;8.43;;
80392;SDS011;69719;45.544;10.218;2023-06-22T14:11:40;20.05;;;8.18;;
80392;SDS011;69719;45.544;10.218;2023-06-22T14:14:06;17.42;;;8.07;;
80392;SDS011;69719;45.544;10.218;2023-06-22T14:16:31;23.73;;;9.65;;
80392;SDS011;69719;45.544;10.218;2023-06-22T14:18:57;19.08;;;8.88;;
80392;SDS011;69719;45.544;10.218;2023-06-22T14:21:22;20.90;;;9.70;;
80392;SDS011;69719;45.544;10.218;2023-06-22T14:23:48;17.52;;;8.15;;
80392;SDS011;69719;45.544;10.218;2023-06-22T14:26:17;20.42;;;8.65;;
80392;SDS011;69719;45.544;10.218;2023-06-22T14:28:46;22.40;;;9.68;;
80392;SDS011;69719;45.544;10.218;2023-06-22T14:31:17;22.45;;;8.95;;